Time;durP1;ratioP1;P1;durP2;ratioP2;P2;SDS_P1;SDS_P2;PMS_P1;PMS_P2;Temp;Humidity;BMP_temperature;BMP_pressure;BME280_temperature;BME280_humidity;BME280_pressure;Samples;Min_cycle;Max_cycle;Signal;HPM_P1;HPM_P2
2023/02/12 00:02:48;;;;;;;;;;;18.90;51.30;;;;;;7528569;23;19941;-76
2023/02/12 00:05:48;;;;;;;;;;;18.90;51.40;;;;;;7527894;23;19940;-76
2023/02/12 00:08:50;;;;;;;;;;;18.90;51.30;;;;;;7528053;23;19928;-76
2023/02/12 00:11:50;;;;;;;;;;;18.90;51.30;;;;;;7527692;23;20211;-76
2023/02/12 00:14:51;;;;;;;;;;;18.80;51.20;;;;;;7528366;23;19906;-76
2023/02/12 00:17:51;;;;;;;;;;;18.90;51.30;;;;;;7527315;23;19964;-76
2023/02/12 00:20:52;;;;;;;;;;;18.90;51.30;;;;;;7527963;23;19906;-77
2023/02/12 00:23:52;;;;;;;;;;;18.90;51.30;;;;;;7527698;23;19906;-77
2023/02/12 00:26:53;;;;;;;;;;;18.90;51.30;;;;;;7527349;23;20233;-76
2023/02/12 00:29:53;;;;;;;;;;;18.90;51.30;;;;;;7574828;23;19933;-76
2023/02/12 00:32:54;;;;;;;;;;;18.90;51.30;;;;;;7535243;23;20327;-76
2023/02/12 00:35:55;;;;;;;;;;;18.90;51.40;;;;;;7527775;23;19941;-76
2023/02/12 00:38:56;;;;;;;;;;;18.90;51.40;;;;;;7528170;23;19913;-75
2023/02/12 00:41:56;;;;;;;;;;;18.90;51.40;;;;;;7527981;23;20379;-75
2023/02/12 00:44:57;;;;;;;;;;;18.90;51.40;;;;;;7528105;23;19910;-76
2023/02/12 00:47:57;;;;;;;;;;;18.90;51.40;;;;;;7527401;23;19952;-76
2023/02/12 00:50:58;;;;;;;;;;;18.90;51.40;;;;;;7527433;23;19917;-76
2023/02/12 00:53:59;;;;;;;;;;;18.90;51.40;;;;;;7527686;23;20323;-76
2023/02/12 00:56:59;;;;;;;;;;;18.90;51.40;;;;;;7527386;23;19910;-76
2023/02/12 01:00:00;;;;;;;;;;;18.90;51.40;;;;;;7574199;23;19914;-76
2023/02/12 01:03:00;;;;;;;;;;;18.90;51.40;;;;;;7527718;23;19963;-77
2023/02/12 01:06:01;;;;;;;;;;;18.90;51.40;;;;;;7527234;23;19906;-76
2023/02/12 01:09:01;;;;;;;;;;;18.90;51.40;;;;;;7527536;23;19913;-76
2023/02/12 01:12:02;;;;;;;;;;;18.90;51.40;;;;;;7527275;23;20445;-76
2023/02/12 01:15:02;;;;;;;;;;;18.90;51.40;;;;;;7534867;23;19912;-76
2023/02/12 01:18:03;;;;;;;;;;;18.90;51.40;;;;;;7527123;23;20321;-75
2023/02/12 01:21:14;;;;;;;;;;;18.90;51.40;;;;;;7527257;23;19929;-76
2023/02/12 01:24:15;;;;;;;;;;;18.90;51.40;;;;;;7527040;23;19917;-76
2023/02/12 01:27:15;;;;;;;;;;;18.90;51.40;;;;;;7526821;23;20245;-75
2023/02/12 01:30:16;;;;;;;;;;;18.90;51.40;;;;;;7526307;23;19906;-76
2023/02/12 01:33:16;;;;;;;;;;;18.90;51.40;;;;;;7526968;23;20333;-76
2023/02/12 01:36:17;;;;;;;;;;;18.90;51.40;;;;;;7526723;23;19928;-75
2023/02/12 01:39:17;;;;;;;;;;;18.80;51.30;;;;;;7526712;23;19914;-75
2023/02/12 01:42:18;;;;;;;;;;;18.90;51.40;;;;;;7527046;23;20477;-76
2023/02/12 01:45:40;;;;;;;;;;;18.90;51.40;;;;;;7527397;23;19984;-75
2023/02/12 01:48:42;;;;;;;;;;;18.90;51.40;;;;;;7516368;23;19905;-76
2023/02/12 01:51:44;;;;;;;;;;;18.90;51.40;;;;;;7534729;23;19917;-76
2023/02/12 01:54:45;;;;;;;;;;;18.90;51.40;;;;;;7526583;23;19910;-76
2023/02/12 01:57:46;;;;;;;;;;;18.90;51.40;;;;;;7526360;23;19906;-77
2023/02/12 02:00:47;;;;;;;;;;;18.90;51.50;;;;;;7527223;23;19906;-77
2023/02/12 02:03:51;;;;;;;;;;;18.90;51.40;;;;;;7527238;23;19913;-76
2023/02/12 02:06:55;;;;;;;;;;;18.80;51.40;;;;;;7526505;23;20329;-76
2023/02/12 02:09:56;;;;;;;;;;;18.90;51.40;;;;;;7526850;23;19913;-74
2023/02/12 02:16:19;;;;;;;;;;;18.90;51.40;;;;;;7527022;23;19906;-76
2023/02/12 02:19:20;;;;;;;;;;;18.90;51.40;;;;;;7526609;23;20344;-76
2023/02/12 02:22:30;;;;;;;;;;;18.90;51.40;;;;;;7526616;23;19906;-76
2023/02/12 02:25:45;;;;;;;;;;;18.90;51.40;;;;;;7676969;23;20348;-75
2023/02/12 02:28:46;;;;;;;;;;;18.80;51.40;;;;;;7526633;23;19960;-76
2023/02/12 02:31:56;;;;;;;;;;;18.90;51.40;;;;;;7526887;23;20277;-76
2023/02/12 02:35:19;;;;;;;;;;;18.90;51.50;;;;;;7526614;23;20380;-76
2023/02/12 02:38:23;;;;;;;;;;;18.90;51.40;;;;;;7526217;23;19920;-75
2023/02/12 02:41:39;;;;;;;;;;;18.90;51.40;;;;;;7528203;23;19910;-76
2023/02/12 02:44:47;;;;;;;;;;;18.90;51.50;;;;;;7530335;23;19980;-75
2023/02/12 02:47:54;;;;;;;;;;;18.90;52.20;;;;;;7530450;23;19913;-76
2023/02/12 02:50:56;;;;;;;;;;;18.80;51.40;;;;;;7529934;23;19953;-76
2023/02/12 02:54:02;;;;;;;;;;;18.80;51.40;;;;;;7527823;23;19937;-76
2023/02/12 02:57:06;;;;;;;;;;;18.90;51.40;;;;;;7529711;23;20269;-75
2023/02/12 03:00:10;;;;;;;;;;;18.80;51.40;;;;;;7530537;23;19913;-76
2023/02/12 03:03:32;;;;;;;;;;;18.80;51.40;;;;;;7555093;23;19909;-75
2023/02/12 03:06:38;;;;;;;;;;;18.80;51.40;;;;;;7530344;23;19913;-76
2023/02/12 03:09:44;;;;;;;;;;;18.90;51.50;;;;;;7531284;23;19937;-76
2023/02/12 03:12:48;;;;;;;;;;;18.90;51.50;;;;;;7530857;23;19916;-76
2023/02/12 03:16:17;;;;;;;;;;;18.80;51.40;;;;;;7530888;23;19906;-75
2023/02/12 03:19:24;;;;;;;;;;;18.90;51.50;;;;;;7477505;23;20325;-76
2023/02/12 03:22:31;;;;;;;;;;;18.90;51.50;;;;;;7530367;23;19941;-77
2023/02/12 03:25:39;;;;;;;;;;;18.80;51.40;;;;;;7530507;23;19913;-77
2023/02/12 03:28:40;;;;;;;;;;;18.80;51.40;;;;;;7530374;23;19977;-76
2023/02/12 03:31:50;;;;;;;;;;;18.80;51.40;;;;;;7530058;23;19909;-76
2023/02/12 03:35:14;;;;;;;;;;;18.80;51.40;;;;;;7530453;23;19926;-76
2023/02/12 03:38:36;;;;;;;;;;;18.80;51.40;;;;;;7530559;23;20117;-75
2023/02/12 03:41:41;;;;;;;;;;;18.90;51.50;;;;;;7530748;23;19913;-76
2023/02/12 03:44:47;;;;;;;;;;;18.80;51.40;;;;;;7525768;23;19980;-76
2023/02/12 03:48:11;;;;;;;;;;;18.80;52.10;;;;;;7538047;23;19905;-75
2023/02/12 03:51:11;;;;;;;;;;;18.80;51.40;;;;;;7521559;23;19923;-76
2023/02/12 03:54:14;;;;;;;;;;;18.80;51.40;;;;;;7528254;23;19941;-76
2023/02/12 03:57:20;;;;;;;;;;;18.90;51.50;;;;;;7528722;23;20032;-76
2023/02/12 04:00:24;;;;;;;;;;;18.80;51.40;;;;;;7528163;23;19922;-76
2023/02/12 04:03:25;;;;;;;;;;;18.90;51.50;;;;;;7528533;23;19981;-76
2023/02/12 04:06:27;;;;;;;;;;;18.80;52.10;;;;;;7528184;23;20289;-76
2023/02/12 04:09:28;;;;;;;;;;;18.80;51.40;;;;;;7535878;23;19933;-76
2023/02/12 04:12:40;;;;;;;;;;;18.90;51.50;;;;;;7573179;23;20478;-76
2023/02/12 04:16:15;;;;;;;;;;;18.80;51.50;;;;;;7526579;23;19905;-76
2023/02/12 04:19:24;;;;;;;;;;;18.80;51.40;;;;;;7453504;23;20012;-76
2023/02/12 04:22:27;;;;;;;;;;;18.90;51.50;;;;;;7534999;23;19906;-77
2023/02/12 04:25:31;;;;;;;;;;;18.80;51.40;;;;;;7527675;23;20361;-76
2023/02/12 04:28:34;;;;;;;;;;;18.80;51.40;;;;;;7528300;23;19949;-76
2023/02/12 04:31:43;;;;;;;;;;;18.80;51.40;;;;;;7527291;23;19992;-75
2023/02/12 04:34:46;;;;;;;;;;;18.80;51.40;;;;;;7527448;23;19905;-75
2023/02/12 04:37:49;;;;;;;;;;;18.80;51.40;;;;;;7527142;23;19961;-75
2023/02/12 04:40:50;;;;;;;;;;;18.80;51.50;;;;;;7527153;23;19937;-75
2023/02/12 04:43:51;;;;;;;;;;;18.80;51.50;;;;;;7527172;23;19952;-77
2023/02/12 04:46:52;;;;;;;;;;;18.90;51.50;;;;;;7527401;23;19929;-77
2023/02/12 04:49:52;;;;;;;;;;;18.80;52.20;;;;;;7527646;23;19918;-79
2023/02/12 04:52:53;;;;;;;;;;;18.90;51.60;;;;;;7574627;23;19913;-76
2023/02/12 04:55:54;;;;;;;;;;;18.80;51.40;;;;;;7526990;23;19933;-76
2023/02/12 04:58:56;;;;;;;;;;;18.80;51.50;;;;;;7528707;23;20102;-75
2023/02/12 05:01:57;;;;;;;;;;;18.80;51.40;;;;;;7526711;23;19905;-75
2023/02/12 05:04:57;;;;;;;;;;;18.80;51.40;;;;;;7526078;23;20424;-76
2023/02/12 05:07:58;;;;;;;;;;;18.90;51.50;;;;;;7527001;23;19932;-75
2023/02/12 05:11:05;;;;;;;;;;;18.80;51.40;;;;;;7526933;23;19906;-75
2023/02/12 05:14:05;;;;;;;;;;;18.80;51.40;;;;;;7535016;23;19910;-76
2023/02/12 05:17:06;;;;;;;;;;;18.90;51.50;;;;;;7527134;23;19932;-75
2023/02/12 05:20:06;;;;;;;;;;;18.80;51.40;;;;;;7527180;23;20312;-76
2023/02/12 05:23:07;;;;;;;;;;;18.90;51.50;;;;;;7527033;23;19910;-76
2023/02/12 05:26:10;;;;;;;;;;;18.80;51.40;;;;;;7526722;23;19910;-76
2023/02/12 05:29:11;;;;;;;;;;;18.90;51.50;;;;;;7527457;23;19906;-75
2023/02/12 05:32:12;;;;;;;;;;;18.80;51.40;;;;;;7526995;23;19913;-76
2023/02/12 05:35:12;;;;;;;;;;;18.90;51.50;;;;;;7522631;23;19996;-74
2023/02/12 05:38:13;;;;;;;;;;;18.90;51.50;;;;;;7527080;23;19910;-77
2023/02/12 05:41:14;;;;;;;;;;;18.90;51.60;;;;;;7527025;23;19929;-75
2023/02/12 05:44:15;;;;;;;;;;;18.90;51.60;;;;;;7527480;23;19937;-75
2023/02/12 05:47:15;;;;;;;;;;;18.90;51.50;;;;;;7534812;23;20279;-76
2023/02/12 05:50:16;;;;;;;;;;;18.90;51.60;;;;;;7534351;23;19925;-75
2023/02/12 05:53:16;;;;;;;;;;;18.90;51.60;;;;;;7526956;23;20237;-76
2023/02/12 05:56:18;;;;;;;;;;;18.90;51.60;;;;;;7526603;23;19981;-75
2023/02/12 05:59:20;;;;;;;;;;;18.90;51.60;;;;;;7522324;23;19913;-76
2023/02/12 06:02:20;;;;;;;;;;;18.90;51.70;;;;;;7526507;23;20403;-77
2023/02/12 06:05:21;;;;;;;;;;;18.90;51.60;;;;;;7526936;23;19906;-76
2023/02/12 06:08:21;;;;;;;;;;;18.90;51.60;;;;;;7525618;23;20236;-76
2023/02/12 06:11:22;;;;;;;;;;;18.90;51.70;;;;;;7525115;23;19906;-76
2023/02/12 06:14:22;;;;;;;;;;;18.90;51.70;;;;;;7526798;23;19941;-76
2023/02/12 06:17:23;;;;;;;;;;;18.90;51.70;;;;;;7525956;23;20325;-76
2023/02/12 06:20:23;;;;;;;;;;;18.90;51.70;;;;;;7526235;23;19914;-75
2023/02/12 06:23:24;;;;;;;;;;;18.90;51.70;;;;;;7573349;23;19993;-76
2023/02/12 06:26:25;;;;;;;;;;;18.90;51.70;;;;;;7526684;23;19910;-76
2023/02/12 06:29:25;;;;;;;;;;;18.90;51.70;;;;;;7526068;23;19905;-76
2023/02/12 06:32:26;;;;;;;;;;;18.90;51.70;;;;;;7525965;23;19913;-76
2023/02/12 06:35:26;;;;;;;;;;;18.90;51.70;;;;;;7526272;23;19906;-75
2023/02/12 06:38:27;;;;;;;;;;;18.90;51.70;;;;;;7526643;23;19920;-75
2023/02/12 06:41:28;;;;;;;;;;;18.90;51.70;;;;;;7534209;23;19933;-75
2023/02/12 06:44:28;;;;;;;;;;;18.90;51.70;;;;;;7526460;23;20306;-75
2023/02/12 06:47:29;;;;;;;;;;;18.90;51.70;;;;;;7525863;23;19906;-76
2023/02/12 06:50:29;;;;;;;;;;;18.90;51.70;;;;;;7526186;23;20044;-76
2023/02/12 06:53:30;;;;;;;;;;;18.90;51.70;;;;;;7527432;23;19909;-76
2023/02/12 06:56:30;;;;;;;;;;;18.90;52.40;;;;;;7523328;23;19921;-76
2023/02/12 06:59:31;;;;;;;;;;;18.90;51.80;;;;;;7520585;23;19937;-75
2023/02/12 07:02:31;;;;;;;;;;;18.90;51.70;;;;;;7526030;23;19982;-76
2023/02/12 07:05:34;;;;;;;;;;;18.90;51.70;;;;;;7533882;23;19913;-76
2023/02/12 07:08:35;;;;;;;;;;;18.80;51.60;;;;;;7526254;23;19956;-75
2023/02/12 07:11:35;;;;;;;;;;;18.90;51.80;;;;;;7521756;23;20220;-76
2023/02/12 07:14:36;;;;;;;;;;;18.90;51.80;;;;;;7573187;23;19905;-76
2023/02/12 07:17:36;;;;;;;;;;;18.90;51.80;;;;;;7525819;23;19940;-76
2023/02/12 07:20:37;;;;;;;;;;;18.90;51.80;;;;;;7526131;23;19913;-75
2023/02/12 07:23:38;;;;;;;;;;;18.80;51.70;;;;;;7525431;23;19905;-76
2023/02/12 07:26:39;;;;;;;;;;;18.90;51.80;;;;;;7526249;23;19952;-77
2023/02/12 07:29:39;;;;;;;;;;;18.90;51.80;;;;;;7527779;23;20256;-76
2023/02/12 07:32:40;;;;;;;;;;;18.90;51.80;;;;;;7527699;23;19938;-76
2023/02/12 07:35:40;;;;;;;;;;;18.80;51.70;;;;;;7574645;23;19928;-76
2023/02/12 07:38:41;;;;;;;;;;;18.90;51.80;;;;;;7527400;23;19913;-75
2023/02/12 07:41:42;;;;;;;;;;;18.90;51.80;;;;;;7527485;23;19941;-76
2023/02/12 07:44:43;;;;;;;;;;;18.90;51.80;;;;;;7527600;23;20281;-76
2023/02/12 07:47:43;;;;;;;;;;;18.90;51.80;;;;;;7527150;23;19916;-76
2023/02/12 07:50:44;;;;;;;;;;;18.90;51.80;;;;;;7527273;23;20069;-75
2023/02/12 07:53:44;;;;;;;;;;;18.90;51.80;;;;;;7527218;23;19909;-76
2023/02/12 07:56:45;;;;;;;;;;;18.90;51.80;;;;;;7574294;23;19910;-75
2023/02/12 07:59:46;;;;;;;;;;;18.90;51.80;;;;;;7574090;23;20337;-77
2023/02/12 08:02:50;;;;;;;;;;;18.90;51.80;;;;;;7526866;23;19906;-76
2023/02/12 08:05:50;;;;;;;;;;;18.90;51.80;;;;;;7527239;23;20523;-75
2023/02/12 08:08:52;;;;;;;;;;;18.80;51.70;;;;;;7527602;23;19916;-75
2023/02/12 08:11:52;;;;;;;;;;;18.90;51.80;;;;;;7527327;23;20321;-76
2023/02/12 08:14:53;;;;;;;;;;;18.90;51.80;;;;;;7526916;23;19932;-75
2023/02/12 08:17:54;;;;;;;;;;;18.90;51.80;;;;;;7527309;23;19951;-76
2023/02/12 08:20:54;;;;;;;;;;;18.90;51.90;;;;;;7527223;23;19940;-76
2023/02/12 08:23:56;;;;;;;;;;;18.80;51.70;;;;;;7527095;23;19906;-76
2023/02/12 08:26:56;;;;;;;;;;;18.90;51.80;;;;;;7527122;23;19933;-76
2023/02/12 08:29:57;;;;;;;;;;;18.90;51.90;;;;;;7527329;23;19989;-75
2023/02/12 08:32:57;;;;;;;;;;;18.90;51.90;;;;;;7527327;23;19912;-74
2023/02/12 08:36:02;;;;;;;;;;;18.90;51.90;;;;;;7527233;23;19910;-78
2023/02/12 08:39:03;;;;;;;;;;;18.90;51.90;;;;;;7527203;23;19914;-78
2023/02/12 08:42:03;;;;;;;;;;;18.90;51.90;;;;;;7527107;23;20268;-78
2023/02/12 08:45:04;;;;;;;;;;;18.90;51.90;;;;;;7535119;23;19913;-76
2023/02/12 08:48:04;;;;;;;;;;;18.90;51.90;;;;;;7527224;23;19985;-75
2023/02/12 08:51:09;;;;;;;;;;;18.90;51.90;;;;;;7526940;23;19922;-74
2023/02/12 08:54:12;;;;;;;;;;;18.90;51.90;;;;;;7527160;23;20284;-78
2023/02/12 08:57:12;;;;;;;;;;;18.90;51.90;;;;;;7526908;23;19906;-78
2023/02/12 09:00:13;;;;;;;;;;;18.80;51.80;;;;;;7527400;23;19940;-77
2023/02/12 09:03:14;;;;;;;;;;;18.90;51.90;;;;;;7534711;23;19906;-76
2023/02/12 09:06:15;;;;;;;;;;;18.90;51.90;;;;;;7527469;23;20372;-75
2023/02/12 09:09:16;;;;;;;;;;;18.90;51.90;;;;;;7526295;23;20347;-77
2023/02/12 09:12:16;;;;;;;;;;;18.90;51.90;;;;;;7523397;23;19909;-76
2023/02/12 09:15:17;;;;;;;;;;;18.90;51.90;;;;;;7530756;23;20222;-76
2023/02/12 09:18:17;;;;;;;;;;;18.90;51.90;;;;;;7529704;23;19910;-75
2023/02/12 09:21:18;;;;;;;;;;;18.90;51.60;;;;;;7531251;23;20447;-76
2023/02/12 09:24:19;;;;;;;;;;;18.90;51.80;;;;;;7530870;23;19905;-75
2023/02/12 09:27:19;;;;;;;;;;;18.90;51.80;;;;;;7530634;23;19948;-75
2023/02/12 09:30:20;;;;;;;;;;;18.90;51.80;;;;;;7531927;23;19905;-76
2023/02/12 09:33:21;;;;;;;;;;;18.90;51.80;;;;;;7532490;23;19941;-76
2023/02/12 09:36:22;;;;;;;;;;;18.90;51.90;;;;;;7540533;23;19906;-77
2023/02/12 09:39:22;;;;;;;;;;;18.90;51.90;;;;;;7533639;23;19952;-76
2023/02/12 09:42:31;;;;;;;;;;;18.90;51.90;;;;;;7533151;23;19909;-77
2023/02/12 09:45:34;;;;;;;;;;;18.90;51.90;;;;;;7540598;23;19909;-76
2023/02/12 09:48:53;;;;;;;;;;;18.90;51.90;;;;;;7579258;23;19913;-76
2023/02/12 09:51:54;;;;;;;;;;;18.80;51.80;;;;;;7531590;23;19925;-77
2023/02/12 09:54:55;;;;;;;;;;;18.90;51.90;;;;;;7531893;23;19909;-76
2023/02/12 09:57:55;;;;;;;;;;;18.90;51.90;;;;;;7532344;23;19910;-76
2023/02/12 10:00:56;;;;;;;;;;;18.90;51.90;;;;;;7532792;23;19913;-76
2023/02/12 10:03:57;;;;;;;;;;;18.90;51.90;;;;;;7532894;23;19972;-76
2023/02/12 10:07:15;;;;;;;;;;;18.90;51.90;;;;;;7532507;23;19906;-76
2023/02/12 10:10:22;;;;;;;;;;;18.90;51.90;;;;;;7532180;23;19911;-77
2023/02/12 10:13:38;;;;;;;;;;;18.90;51.90;;;;;;7532480;23;20218;-77
2023/02/12 10:16:57;;;;;;;;;;;18.90;51.90;;;;;;7532624;23;19961;-76
2023/02/12 10:20:03;;;;;;;;;;;18.90;51.90;;;;;;7524047;23;20567;-77
2023/02/12 10:23:16;;;;;;;;;;;18.90;51.90;;;;;;7523170;23;20001;-77
2023/02/12 10:26:29;;;;;;;;;;;18.90;52.60;;;;;;7524515;23;19980;-76
2023/02/12 10:29:37;;;;;;;;;;;18.90;51.90;;;;;;7526742;23;20303;-78
2023/02/12 10:32:37;;;;;;;;;;;18.90;51.90;;;;;;7532822;23;19912;-76
2023/02/12 10:35:42;;;;;;;;;;;18.90;52.00;;;;;;7526668;23;19906;-75
2023/02/12 10:38:46;;;;;;;;;;;18.90;52.00;;;;;;7535962;23;19917;-76
2023/02/12 10:42:02;;;;;;;;;;;18.90;52.00;;;;;;7526522;23;19940;-75
2023/02/12 10:45:02;;;;;;;;;;;18.90;52.00;;;;;;7525963;23;20245;-77
2023/02/12 10:48:05;;;;;;;;;;;18.90;52.00;;;;;;7524985;23;19906;-76
2023/02/12 10:51:06;;;;;;;;;;;18.90;52.00;;;;;;7520568;23;19956;-77
2023/02/12 10:54:25;;;;;;;;;;;18.90;52.00;;;;;;7524196;23;20353;-76
2023/02/12 10:57:27;;;;;;;;;;;18.90;52.00;;;;;;7524652;23;20237;-76
2023/02/12 11:00:27;;;;;;;;;;;18.90;52.00;;;;;;7524694;23;20004;-76
2023/02/12 11:03:32;;;;;;;;;;;18.90;52.00;;;;;;7525523;23;19924;-76
2023/02/12 11:06:33;;;;;;;;;;;18.90;52.00;;;;;;7526018;23;19941;-78
2023/02/12 11:09:44;;;;;;;;;;;18.90;52.00;;;;;;7520177;23;19997;-77
2023/02/12 11:12:47;;;;;;;;;;;18.90;52.00;;;;;;7550207;23;19905;-76
2023/02/12 11:15:48;;;;;;;;;;;18.80;51.90;;;;;;7525854;23;20049;-77
2023/02/12 11:18:56;;;;;;;;;;;18.90;52.00;;;;;;7526052;23;19914;-78
2023/02/12 11:22:07;;;;;;;;;;;18.90;52.00;;;;;;7525263;23;19913;-77
2023/02/12 11:25:14;;;;;;;;;;;18.90;52.00;;;;;;7524923;23;19940;-77
2023/02/12 11:28:17;;;;;;;;;;;18.90;52.00;;;;;;7526163;23;19910;-78
2023/02/12 11:31:21;;;;;;;;;;;18.90;52.00;;;;;;7525721;23;19906;-77
2023/02/12 11:34:21;;;;;;;;;;;18.90;52.10;;;;;;7572658;23;19909;-77
2023/02/12 11:37:22;;;;;;;;;;;18.90;52.00;;;;;;7525887;23;19913;-77
2023/02/12 11:40:25;;;;;;;;;;;18.90;52.10;;;;;;7522905;23;19941;-77
2023/02/12 11:43:28;;;;;;;;;;;18.90;52.00;;;;;;7525159;23;20374;-78
2023/02/12 11:46:28;;;;;;;;;;;18.90;52.10;;;;;;7524865;23;19905;-77
2023/02/12 11:49:31;;;;;;;;;;;18.90;52.10;;;;;;7571091;23;19917;-77
2023/02/12 11:52:32;;;;;;;;;;;18.80;52.00;;;;;;7524919;23;19913;-77
2023/02/12 11:55:34;;;;;;;;;;;18.90;52.10;;;;;;7524029;23;19913;-77
2023/02/12 11:58:35;;;;;;;;;;;18.90;52.10;;;;;;7525385;23;19924;-77
2023/02/12 12:01:37;;;;;;;;;;;18.90;52.10;;;;;;7533636;23;19909;-77
2023/02/12 12:04:39;;;;;;;;;;;18.90;52.10;;;;;;7534596;23;19912;-77
2023/02/12 12:07:42;;;;;;;;;;;18.90;52.10;;;;;;7529391;23;19941;-76
2023/02/12 12:10:45;;;;;;;;;;;18.90;52.10;;;;;;7528986;23;19913;-76
2023/02/12 12:14:09;;;;;;;;;;;18.90;52.10;;;;;;7530577;23;19906;-77
2023/02/12 12:20:35;;;;;;;;;;;18.80;51.70;;;;;;7525125;23;20329;-76
2023/02/12 12:23:39;;;;;;;;;;;18.90;51.90;;;;;;7486012;23;19906;-76
2023/02/12 12:26:41;;;;;;;;;;;18.90;51.90;;;;;;7486921;23;20333;-76
2023/02/12 12:29:51;;;;;;;;;;;18.90;51.90;;;;;;7482477;23;19913;-76
2023/02/12 12:32:54;;;;;;;;;;;18.90;51.90;;;;;;7487146;23;20385;-75
2023/02/12 12:35:57;;;;;;;;;;;18.90;51.90;;;;;;7486877;23;20341;-76
2023/02/12 12:38:57;;;;;;;;;;;18.90;52.00;;;;;;7486927;23;20353;-77
2023/02/12 12:42:01;;;;;;;;;;;18.90;51.90;;;;;;7487044;23;19984;-76
2023/02/12 12:45:20;;;;;;;;;;;18.90;52.00;;;;;;7486669;23;20300;-76
2023/02/12 12:48:36;;;;;;;;;;;18.90;52.00;;;;;;7491412;23;19913;-77
2023/02/12 12:51:57;;;;;;;;;;;18.90;52.00;;;;;;7486539;23;20293;-76
2023/02/12 12:55:17;;;;;;;;;;;18.90;52.00;;;;;;7514389;23;20249;-76
2023/02/12 12:58:20;;;;;;;;;;;18.90;52.00;;;;;;7526339;23;19909;-76
2023/02/12 13:01:29;;;;;;;;;;;18.90;52.10;;;;;;7550340;23;20283;-76
2023/02/12 13:04:54;;;;;;;;;;;18.90;52.00;;;;;;7524534;23;19905;-76
2023/02/12 13:07:55;;;;;;;;;;;18.90;52.00;;;;;;7525741;23;20337;-76
2023/02/12 13:11:22;;;;;;;;;;;18.90;52.00;;;;;;7550902;23;19913;-76
2023/02/12 13:14:22;;;;;;;;;;;18.90;52.10;;;;;;7502222;23;19952;-76
2023/02/12 13:17:32;;;;;;;;;;;18.90;52.10;;;;;;7550972;23;19909;-77
2023/02/12 13:20:37;;;;;;;;;;;18.90;52.10;;;;;;7525558;23;19921;-76
2023/02/12 13:23:46;;;;;;;;;;;18.90;52.10;;;;;;7525358;23;19906;-76
2023/02/12 13:26:56;;;;;;;;;;;18.90;52.10;;;;;;7524880;23;19906;-77
2023/02/12 13:30:03;;;;;;;;;;;18.90;52.10;;;;;;7550912;23;19905;-76
2023/02/12 13:33:21;;;;;;;;;;;18.90;52.10;;;;;;7561642;23;19909;-76
2023/02/12 13:36:22;;;;;;;;;;;18.90;52.10;;;;;;7525428;23;20236;-76
2023/02/12 13:39:22;;;;;;;;;;;18.90;52.10;;;;;;7525631;23;19923;-76
2023/02/12 13:42:35;;;;;;;;;;;18.90;52.10;;;;;;7543790;23;19945;-76
2023/02/12 13:45:41;;;;;;;;;;;18.90;52.10;;;;;;7519007;23;19932;-77
2023/02/12 13:48:44;;;;;;;;;;;18.90;52.10;;;;;;7525613;23;19910;-76
2023/02/12 13:51:47;;;;;;;;;;;18.90;52.20;;;;;;7534557;23;19921;-76
2023/02/12 13:55:06;;;;;;;;;;;18.90;52.20;;;;;;7571995;23;20241;-77
2023/02/12 13:58:25;;;;;;;;;;;18.90;52.20;;;;;;7525596;23;19960;-76
2023/02/12 14:01:34;;;;;;;;;;;18.80;52.10;;;;;;7525139;23;19905;-76
2023/02/12 14:04:38;;;;;;;;;;;18.90;52.20;;;;;;7550533;23;20252;-76
2023/02/12 14:07:49;;;;;;;;;;;18.90;52.20;;;;;;7525546;23;19913;-75
2023/02/12 14:11:02;;;;;;;;;;;18.80;52.10;;;;;;7524868;23;19948;-76
2023/02/12 14:14:04;;;;;;;;;;;18.90;52.20;;;;;;7525316;23;20245;-76
2023/02/12 14:17:23;;;;;;;;;;;18.90;52.20;;;;;;7529363;23;19906;-76
2023/02/12 14:20:25;;;;;;;;;;;18.90;52.20;;;;;;7525578;23;19917;-76
2023/02/12 14:23:27;;;;;;;;;;;18.90;52.20;;;;;;7523855;23;19912;-76
2023/02/12 14:26:35;;;;;;;;;;;18.90;52.20;;;;;;7524662;23;19909;-76
2023/02/12 14:29:36;;;;;;;;;;;18.80;52.10;;;;;;7524617;23;19913;-76
2023/02/12 14:32:48;;;;;;;;;;;18.90;52.20;;;;;;7524489;23;19968;-75
2023/02/12 14:36:09;;;;;;;;;;;18.90;52.20;;;;;;7549638;23;19913;-77
2023/02/12 14:39:15;;;;;;;;;;;18.90;52.20;;;;;;7525261;23;19920;-76
2023/02/12 14:42:16;;;;;;;;;;;18.90;52.20;;;;;;7524487;23;19963;-77
2023/02/12 14:45:27;;;;;;;;;;;18.90;52.20;;;;;;7549578;23;19910;-76
2023/02/12 14:48:38;;;;;;;;;;;18.90;52.20;;;;;;7522723;23;19910;-77
2023/02/12 14:52:00;;;;;;;;;;;18.90;52.30;;;;;;7524403;23;20395;-76
2023/02/12 14:55:03;;;;;;;;;;;18.90;52.20;;;;;;7532865;23;19906;-76
2023/02/12 14:58:05;;;;;;;;;;;18.90;52.20;;;;;;7571730;23;19913;-76
2023/02/12 15:01:06;;;;;;;;;;;18.90;52.20;;;;;;7532862;23;19910;-76
2023/02/12 15:04:22;;;;;;;;;;;18.90;52.20;;;;;;7524262;23;20340;-76
2023/02/12 15:07:28;;;;;;;;;;;18.90;52.20;;;;;;7524955;23;20314;-76
2023/02/12 15:10:34;;;;;;;;;;;18.90;52.20;;;;;;7474867;23;19933;-76
2023/02/12 15:13:42;;;;;;;;;;;18.90;52.30;;;;;;7481426;23;20334;-77
2023/02/12 15:16:46;;;;;;;;;;;18.90;52.20;;;;;;7487640;23;19906;-76
2023/02/12 15:19:46;;;;;;;;;;;18.90;52.20;;;;;;7486084;23;19920;-77
2023/02/12 15:22:47;;;;;;;;;;;18.90;52.20;;;;;;7490349;23;19906;-76
2023/02/12 15:25:49;;;;;;;;;;;18.90;52.20;;;;;;7486872;23;20321;-76
2023/02/12 15:28:51;;;;;;;;;;;18.90;52.30;;;;;;7484899;23;20510;-76
2023/02/12 15:31:53;;;;;;;;;;;18.90;52.30;;;;;;7487858;23;19957;-76
2023/02/12 15:34:54;;;;;;;;;;;18.90;52.30;;;;;;7485586;23;19910;-77
2023/02/12 15:37:56;;;;;;;;;;;18.90;52.30;;;;;;7485742;23;20560;-76
2023/02/12 15:40:58;;;;;;;;;;;18.90;52.30;;;;;;7501496;23;20615;-76
2023/02/12 15:44:00;;;;;;;;;;;18.90;52.30;;;;;;7525539;23;19951;-77
2023/02/12 15:47:00;;;;;;;;;;;18.90;52.30;;;;;;7517813;23;19932;-77
2023/02/12 15:50:01;;;;;;;;;;;18.90;52.30;;;;;;7525858;23;19917;-76
2023/02/12 15:53:02;;;;;;;;;;;18.90;52.30;;;;;;7522525;23;19910;-76
2023/02/12 15:56:02;;;;;;;;;;;18.90;52.30;;;;;;7523996;23;20008;-76
2023/02/12 15:59:03;;;;;;;;;;;18.90;52.30;;;;;;7523229;23;19976;-76
2023/02/12 16:02:16;;;;;;;;;;;18.90;52.30;;;;;;7569758;23;19906;-76
2023/02/12 16:05:16;;;;;;;;;;;18.90;52.30;;;;;;7523451;23;20075;-76
2023/02/12 16:08:19;;;;;;;;;;;18.90;52.40;;;;;;7569770;23;19905;-76
2023/02/12 16:11:20;;;;;;;;;;;18.90;52.30;;;;;;7523645;23;19909;-77
2023/02/12 16:14:23;;;;;;;;;;;18.90;52.30;;;;;;7522880;23;20288;-76
2023/02/12 16:17:24;;;;;;;;;;;18.90;52.30;;;;;;7523260;23;20192;-76
2023/02/12 16:20:26;;;;;;;;;;;18.90;52.30;;;;;;7523839;23;19914;-76
2023/02/12 16:23:27;;;;;;;;;;;18.90;52.30;;;;;;7522331;23;19906;-76
2023/02/12 16:26:27;;;;;;;;;;;18.90;52.40;;;;;;7520800;23;19980;-76
2023/02/12 16:29:29;;;;;;;;;;;18.90;52.30;;;;;;7533583;23;19959;-76
2023/02/12 16:32:29;;;;;;;;;;;18.90;52.30;;;;;;7533339;23;20327;-76
2023/02/12 16:35:34;;;;;;;;;;;18.90;52.40;;;;;;7531166;23;19905;-77
2023/02/12 16:38:51;;;;;;;;;;;18.90;52.40;;;;;;7534680;23;19977;-77
2023/02/12 16:41:53;;;;;;;;;;;18.90;52.40;;;;;;7532239;23;19917;-78
2023/02/12 16:44:54;;;;;;;;;;;18.90;52.40;;;;;;7535785;23;19928;-78
2023/02/12 16:48:02;;;;;;;;;;;18.90;52.40;;;;;;7580906;23;19910;-78
2023/02/12 16:51:05;;;;;;;;;;;18.90;52.40;;;;;;7537426;23;20241;-78
2023/02/12 16:54:24;;;;;;;;;;;18.90;52.40;;;;;;7535158;23;19972;-78
2023/02/12 16:57:24;;;;;;;;;;;18.90;52.40;;;;;;7535967;23;19980;-78
2023/02/12 17:00:25;;;;;;;;;;;18.90;52.40;;;;;;7535334;23;20470;-77
2023/02/12 17:03:26;;;;;;;;;;;18.90;52.40;;;;;;7540037;23;19905;-77
2023/02/12 17:06:28;;;;;;;;;;;18.90;52.40;;;;;;7584940;23;19987;-78
2023/02/12 17:09:29;;;;;;;;;;;18.90;52.40;;;;;;7537298;23;19905;-78
2023/02/12 17:12:29;;;;;;;;;;;18.90;52.40;;;;;;7536787;23;19912;-77
2023/02/12 17:15:33;;;;;;;;;;;18.90;52.40;;;;;;7582376;23;19913;-77
2023/02/12 17:18:34;;;;;;;;;;;18.90;52.40;;;;;;7582935;23;19914;-78
2023/02/12 17:21:38;;;;;;;;;;;18.90;53.00;;;;;;7543131;23;20122;-77
2023/02/12 17:24:38;;;;;;;;;;;18.90;52.40;;;;;;7535072;23;19905;-78
2023/02/12 17:27:39;;;;;;;;;;;18.90;52.40;;;;;;7534053;23;19952;-78
2023/02/12 17:30:40;;;;;;;;;;;18.90;52.40;;;;;;7534486;23;19916;-77
2023/02/12 17:33:40;;;;;;;;;;;18.90;52.40;;;;;;7533517;23;19985;-76
2023/02/12 17:36:41;;;;;;;;;;;18.90;52.40;;;;;;7539035;23;20236;-78
2023/02/12 17:39:41;;;;;;;;;;;18.90;52.40;;;;;;7539645;23;20317;-78
2023/02/12 17:42:42;;;;;;;;;;;18.90;52.40;;;;;;7577916;23;20376;-77
2023/02/12 17:45:42;;;;;;;;;;;18.90;52.40;;;;;;7532760;23;19913;-78
2023/02/12 17:48:43;;;;;;;;;;;18.90;52.40;;;;;;7532240;23;19940;-77
2023/02/12 17:51:43;;;;;;;;;;;18.90;52.40;;;;;;7578704;23;19917;-78
2023/02/12 17:54:44;;;;;;;;;;;18.90;52.40;;;;;;7530603;23;19913;-78
2023/02/12 17:57:45;;;;;;;;;;;18.90;52.40;;;;;;7539923;23;19936;-77